Time;durP1;ratioP1;P1;durP2;ratioP2;P2;SDS_P1;SDS_P2;PMS_P1;PMS_P2;Temp;Humidity;BMP_temperature;BMP_pressure;BME280_temperature;BME280_humidity;BME280_pressure;Samples;Min_cycle;Max_cycle;Signal;HPM_P1;HPM_P2
2023/05/22 00:00:15;;;;;;;4.00;2.57;;;;;;;;;;5055336;28;20281;-71
2023/05/22 00:02:41;;;;;;;3.95;2.78;;;;;;;;;;5057531;28;20110;-69
2023/05/22 00:05:08;;;;;;;4.22;2.85;;;;;;;;;;5039202;28;20392;-69
2023/05/22 00:07:34;;;;;;;3.45;2.63;;;;;;;;;;5054421;28;20120;-65
2023/05/22 00:09:59;;;;;;;4.63;2.70;;;;;;;;;;5058742;28;20056;-72
2023/05/22 00:12:24;;;;;;;4.00;2.90;;;;;;;;;;5049872;28;20024;-67
2023/05/22 00:14:50;;;;;;;3.50;2.60;;;;;;;;;;5057632;28;20023;-71
2023/05/22 00:17:15;;;;;;;3.65;2.75;;;;;;;;;;5036254;28;20247;-70
2023/05/22 00:19:41;;;;;;;4.03;2.97;;;;;;;;;;5049370;28;20074;-71
2023/05/22 00:22:06;;;;;;;3.95;3.10;;;;;;;;;;5034128;28;20353;-70
2023/05/22 00:24:31;;;;;;;3.30;2.60;;;;;;;;;;5037233;28;20436;-72
2023/05/22 00:26:56;;;;;;;4.37;3.10;;;;;;;;;;5031079;28;20369;-72
2023/05/22 00:29:22;;;;;;;4.13;2.60;;;;;;;;;;5026944;28;20137;-66
2023/05/22 00:31:47;;;;;;;3.87;3.20;;;;;;;;;;5030351;28;20036;-72
2023/05/22 00:34:12;;;;;;;3.43;2.60;;;;;;;;;;5032099;28;20275;-71
2023/05/22 00:36:37;;;;;;;2.92;2.53;;;;;;;;;;5027938;28;20040;-71
2023/05/22 00:39:03;;;;;;;4.40;2.80;;;;;;;;;;5026070;28;20044;-70
2023/05/22 00:41:28;;;;;;;3.37;2.57;;;;;;;;;;5035291;28;20260;-66
2023/05/22 00:43:53;;;;;;;3.78;2.70;;;;;;;;;;5032970;28;20358;-70
2023/05/22 00:46:21;;;;;;;4.05;2.58;;;;;;;;;;5027205;28;20055;-70
2023/05/22 00:48:47;;;;;;;4.13;2.40;;;;;;;;;;5028185;28;20032;-72
2023/05/22 00:51:13;;;;;;;3.30;2.58;;;;;;;;;;5026184;28;20018;-73
2023/05/22 00:53:38;;;;;;;3.78;2.60;;;;;;;;;;5021139;28;20114;-68
2023/05/22 00:56:03;;;;;;;3.63;2.50;;;;;;;;;;5020800;28;20075;-72
2023/05/22 00:58:29;;;;;;;3.63;2.78;;;;;;;;;;5015192;28;20033;-71
2023/05/22 01:00:54;;;;;;;3.17;2.72;;;;;;;;;;5008214;28;20025;-66
2023/05/22 01:03:24;;;;;;;3.38;2.58;;;;;;;;;;5019303;28;20027;-70
2023/05/22 01:05:49;;;;;;;;;;;;;;;;;;5027342;28;20037;-71
2023/05/22 01:08:15;;;;;;;4.00;2.80;;;;;;;;;;5024953;28;19921;-66
2023/05/22 01:10:40;;;;;;;3.50;2.70;;;;;;;;;;5026412;28;20131;-66
2023/05/22 01:13:11;;;;;;;3.70;2.88;;;;;;;;;;5025528;28;20037;-67
2023/05/22 01:15:55;;;;;;;4.03;2.60;;;;;;;;;;5021695;28;20037;-71
2023/05/22 01:18:23;;;;;;;4.40;2.72;;;;;;;;;;5045401;28;20079;-72
2023/05/22 01:20:53;;;;;;;3.67;2.70;;;;;;;;;;5042153;28;20099;-61
2023/05/22 01:23:19;;;;;;;;;;;;;;;;;;5026720;28;20154;-64
2023/05/22 01:26:02;;;;;;;3.88;2.63;;;;;;;;;;5030208;28;19921;-66
2023/05/22 01:28:31;;;;;;;3.78;2.42;;;;;;;;;;5025308;28;20042;-71
2023/05/22 01:30:56;;;;;;;3.30;2.42;;;;;;;;;;5027499;28;20067;-70
2023/05/22 01:33:24;;;;;;;4.70;2.70;;;;;;;;;;5035359;28;20037;-71
2023/05/22 01:35:50;;;;;;;3.30;2.42;;;;;;;;;;5037554;28;20383;-69
2023/05/22 01:38:16;;;;;;;2.97;2.25;;;;;;;;;;5030247;28;20029;-71
2023/05/22 01:40:41;;;;;;;2.95;2.38;;;;;;;;;;5038231;28;20159;-68
2023/05/22 01:43:06;;;;;;;3.30;2.60;;;;;;;;;;5037746;28;20162;-71
2023/05/22 01:45:32;;;;;;;4.03;3.00;;;;;;;;;;5025440;28;20269;-70
2023/05/22 01:47:57;;;;;;;2.90;2.55;;;;;;;;;;5042686;28;20183;-71
2023/05/22 01:50:22;;;;;;;3.90;2.70;;;;;;;;;;5041985;28;20037;-72
2023/05/22 01:52:51;;;;;;;3.58;2.75;;;;;;;;;;5027052;28;20722;-64
2023/05/22 01:55:22;;;;;;;2.83;2.30;;;;;;;;;;5026111;28;20038;-68
2023/05/22 01:58:07;;;;;;;4.05;2.60;;;;;;;;;;5031319;28;20499;-71
2023/05/22 02:00:33;;;;;;;3.97;2.78;;;;;;;;;;5028202;28;20507;-73
2023/05/22 02:03:05;;;;;;;2.95;2.65;;;;;;;;;;5034066;28;20173;-73
2023/05/22 02:05:30;;;;;;;3.67;2.80;;;;;;;;;;5041187;28;21233;-69
2023/05/22 02:07:56;;;;;;;3.77;2.80;;;;;;;;;;5029061;28;20076;-71
2023/05/22 02:10:21;;;;;;;3.58;2.33;;;;;;;;;;5025768;28;20287;-70
2023/05/22 02:12:46;;;;;;;3.20;2.50;;;;;;;;;;5032408;28;20034;-73
2023/05/22 02:15:12;;;;;;;3.67;2.60;;;;;;;;;;5027496;28;20052;-71
2023/05/22 02:17:39;;;;;;;3.88;2.40;;;;;;;;;;5037761;28;20814;-63
2023/05/22 02:20:06;;;;;;;3.17;2.50;;;;;;;;;;5028807;28;20202;-63
2023/05/22 02:22:31;;;;;;;3.70;2.25;;;;;;;;;;5036128;28;20041;-72
2023/05/22 02:24:56;;;;;;;3.50;2.73;;;;;;;;;;5037059;28;20093;-71
2023/05/22 02:27:21;;;;;;;4.13;2.90;;;;;;;;;;5035606;28;20481;-71
2023/05/22 02:29:47;;;;;;;2.90;2.30;;;;;;;;;;5027389;28;20299;-66
2023/05/22 02:32:12;;;;;;;3.37;2.43;;;;;;;;;;5030149;28;20674;-68
2023/05/22 02:34:37;;;;;;;3.63;2.40;;;;;;;;;;5030786;28;20366;-68
2023/05/22 02:37:02;;;;;;;3.47;2.60;;;;;;;;;;5028619;28;20307;-71
2023/05/22 02:39:28;;;;;;;2.90;2.47;;;;;;;;;;5026913;28;20280;-65
2023/05/22 02:41:53;;;;;;;3.25;2.47;;;;;;;;;;5037685;28;20566;-67
2023/05/22 02:44:19;;;;;;;3.23;2.77;;;;;;;;;;5032541;28;20113;-70
2023/05/22 02:46:44;;;;;;;3.25;2.65;;;;;;;;;;5028569;28;20832;-62
2023/05/22 02:49:09;;;;;;;4.22;2.55;;;;;;;;;;5029009;28;20112;-70
2023/05/22 02:51:35;;;;;;;3.33;2.33;;;;;;;;;;5029723;28;20061;-70
2023/05/22 02:54:00;;;;;;;3.38;2.40;;;;;;;;;;5028830;28;20087;-71
2023/05/22 02:56:27;;;;;;;3.67;2.40;;;;;;;;;;5034295;28;20060;-71
2023/05/22 02:58:52;;;;;;;3.35;2.50;;;;;;;;;;5040207;28;20374;-69
2023/05/22 03:01:18;;;;;;;3.80;2.60;;;;;;;;;;5030251;28;20116;-74
2023/05/22 03:03:43;;;;;;;2.90;2.50;;;;;;;;;;5031613;28;20292;-68
2023/05/22 03:06:09;;;;;;;4.97;2.60;;;;;;;;;;5032499;28;20171;-69
2023/05/22 03:08:37;;;;;;;3.00;2.25;;;;;;;;;;5031761;28;20308;-66
2023/05/22 03:11:02;;;;;;;3.45;2.45;;;;;;;;;;5028234;28;20087;-70
2023/05/22 03:13:27;;;;;;;3.57;2.50;;;;;;;;;;5051444;28;20487;-72
2023/05/22 03:15:52;;;;;;;3.20;2.53;;;;;;;;;;5035318;28;20290;-66
2023/05/22 03:18:18;;;;;;;3.70;2.47;;;;;;;;;;5037680;28;20028;-70
2023/05/22 03:20:43;;;;;;;3.67;2.88;;;;;;;;;;5055941;28;20287;-62
2023/05/22 03:23:10;;;;;;;3.63;2.13;;;;;;;;;;5056602;28;20525;-63
2023/05/22 03:25:35;;;;;;;3.10;2.40;;;;;;;;;;5056135;28;20482;-64
2023/05/22 03:28:00;;;;;;;4.43;2.50;;;;;;;;;;5050592;28;20053;-66
2023/05/22 03:30:25;;;;;;;3.47;2.33;;;;;;;;;;5054643;28;20044;-67
2023/05/22 03:32:51;;;;;;;3.63;2.17;;;;;;;;;;5052768;28;20294;-66
2023/05/22 03:35:18;;;;;;;2.80;2.28;;;;;;;;;;5055167;28;20294;-66
2023/05/22 03:37:44;;;;;;;3.35;2.50;;;;;;;;;;5055023;28;20039;-70
2023/05/22 03:40:09;;;;;;;2.97;2.42;;;;;;;;;;5051562;28;20103;-62
2023/05/22 03:42:34;;;;;;;3.33;2.58;;;;;;;;;;5053285;28;20025;-65
2023/05/22 03:45:00;;;;;;;3.03;2.30;;;;;;;;;;5052518;28;20024;-64
2023/05/22 03:47:25;;;;;;;4.00;2.70;;;;;;;;;;5055686;28;20123;-63
2023/05/22 03:49:50;;;;;;;3.30;2.60;;;;;;;;;;5052746;28;20502;-64
2023/05/22 03:52:15;;;;;;;4.25;2.53;;;;;;;;;;5054400;28;20382;-70
2023/05/22 03:54:41;;;;;;;3.30;2.60;;;;;;;;;;5054047;28;20024;-66
2023/05/22 03:57:06;;;;;;;3.47;2.60;;;;;;;;;;5055298;28;20097;-61
2023/05/22 03:59:31;;;;;;;20.52;4.40;;;;;;;;;;5040668;28;20942;-65
2023/05/22 04:01:57;;;;;;;3.53;2.67;;;;;;;;;;5052657;28;20052;-68
2023/05/22 04:04:25;;;;;;;3.75;2.40;;;;;;;;;;5053765;28;20336;-66
2023/05/22 04:06:51;;;;;;;3.17;2.58;;;;;;;;;;5054525;28;20036;-69
2023/05/22 04:09:16;;;;;;;3.60;2.63;;;;;;;;;;5053329;28;20032;-64
2023/05/22 04:11:42;;;;;;;3.40;2.60;;;;;;;;;;5048953;28;20547;-67
2023/05/22 04:14:07;;;;;;;3.70;2.33;;;;;;;;;;5051244;28;20554;-64
2023/05/22 04:16:33;;;;;;;3.22;2.35;;;;;;;;;;5035441;28;20116;-67
2023/05/22 04:19:00;;;;;;;4.10;2.60;;;;;;;;;;5048259;28;20053;-65
2023/05/22 04:21:26;;;;;;;3.47;2.53;;;;;;;;;;5049509;28;20091;-69
2023/05/22 04:23:51;;;;;;;3.97;2.60;;;;;;;;;;5046040;28;20033;-65
2023/05/22 04:26:16;;;;;;;3.47;2.57;;;;;;;;;;5032270;28;20016;-66
2023/05/22 04:28:44;;;;;;;3.40;2.60;;;;;;;;;;5045741;28;20509;-68
2023/05/22 04:31:11;;;;;;;3.72;2.40;;;;;;;;;;5047417;28;20111;-67
2023/05/22 04:33:37;;;;;;;3.78;2.60;;;;;;;;;;5036380;28;20048;-65
2023/05/22 04:36:03;;;;;;;3.10;2.15;;;;;;;;;;5049320;28;20041;-68
2023/05/22 04:38:29;;;;;;;3.08;2.60;;;;;;;;;;5058570;28;20475;-68
2023/05/22 04:40:54;;;;;;;3.20;2.30;;;;;;;;;;5046238;28;20033;-65
2023/05/22 04:43:19;;;;;;;3.13;2.50;;;;;;;;;;5047126;28;20123;-66
2023/05/22 04:45:45;;;;;;;4.87;2.97;;;;;;;;;;5049888;28;20072;-65
2023/05/22 04:48:11;;;;;;;3.50;2.60;;;;;;;;;;5050922;28;20298;-68
2023/05/22 04:50:37;;;;;;;3.63;2.83;;;;;;;;;;5050561;28;20785;-67
2023/05/22 04:53:03;;;;;;;4.78;2.88;;;;;;;;;;5036816;28;20036;-63
2023/05/22 04:55:28;;;;;;;5.43;2.63;;;;;;;;;;5052447;28;20033;-62
2023/05/22 04:57:55;;;;;;;4.00;2.63;;;;;;;;;;5029675;28;20504;-63
2023/05/22 05:00:25;;;;;;;5.50;2.85;;;;;;;;;;5055301;28;20032;-60
2023/05/22 05:02:50;;;;;;;;;;;;;;;;;;5054173;28;20664;-61
2023/05/22 05:05:15;;;;;;;5.45;2.40;;;;;;;;;;5054884;28;20423;-61
2023/05/22 05:07:42;;;;;;;3.53;2.58;;;;;;;;;;5052660;28;20619;-61
2023/05/22 05:10:07;;;;;;;4.00;2.42;;;;;;;;;;5052597;28;20040;-61
2023/05/22 05:12:33;;;;;;;4.82;2.78;;;;;;;;;;5030983;28;20523;-60
2023/05/22 05:14:58;;;;;;;3.70;2.77;;;;;;;;;;5052438;28;20536;-62
2023/05/22 05:17:23;;;;;;;4.70;2.33;;;;;;;;;;5053075;28;20028;-63
2023/05/22 05:19:48;;;;;;;3.70;2.55;;;;;;;;;;5050189;28;20091;-66
2023/05/22 05:22:14;;;;;;;3.77;2.60;;;;;;;;;;5050287;28;20119;-63
2023/05/22 05:24:39;;;;;;;4.37;2.80;;;;;;;;;;5050370;28;20279;-66
2023/05/22 05:27:04;;;;;;;3.53;2.78;;;;;;;;;;5058850;28;20056;-66
2023/05/22 05:29:30;;;;;;;3.30;2.50;;;;;;;;;;5053469;28;20138;-65
2023/05/22 05:31:55;;;;;;;3.87;2.67;;;;;;;;;;5047408;28;20032;-68
2023/05/22 05:34:20;;;;;;;3.40;2.90;;;;;;;;;;5049824;28;20678;-61
2023/05/22 05:36:46;;;;;;;3.67;2.77;;;;;;;;;;5054846;28;20286;-66
2023/05/22 05:39:11;;;;;;;2.90;2.40;;;;;;;;;;5035295;28;20075;-68
2023/05/22 05:41:36;;;;;;;3.33;2.50;;;;;;;;;;5038600;28;20039;-63
2023/05/22 05:44:01;;;;;;;5.20;2.70;;;;;;;;;;5049166;28;20382;-63
2023/05/22 05:46:27;;;;;;;7.30;2.80;;;;;;;;;;5054420;28;20290;-67
2023/05/22 05:48:52;;;;;;;3.05;2.42;;;;;;;;;;5049360;28;20757;-65
2023/05/22 05:51:17;;;;;;;4.05;2.70;;;;;;;;;;5053481;28;20669;-63
2023/05/22 05:53:42;;;;;;;4.10;2.63;;;;;;;;;;5048867;28;20063;-65
2023/05/22 05:56:08;;;;;;;3.70;2.53;;;;;;;;;;5047047;28;20659;-62
2023/05/22 05:58:33;;;;;;;3.78;2.58;;;;;;;;;;5038669;28;20283;-63
2023/05/22 06:00:58;;;;;;;4.17;2.73;;;;;;;;;;5051980;28;20033;-64
2023/05/22 06:03:24;;;;;;;3.63;2.57;;;;;;;;;;5036176;28;20387;-64
2023/05/22 06:05:50;;;;;;;3.78;2.55;;;;;;;;;;5034844;28;20048;-62
2023/05/22 06:08:15;;;;;;;4.20;2.65;;;;;;;;;;5051111;28;20055;-67
2023/05/22 06:10:40;;;;;;;4.27;2.40;;;;;;;;;;5038942;28;20033;-64
2023/05/22 06:13:06;;;;;;;5.43;2.80;;;;;;;;;;5054044;28;20508;-61
2023/05/22 06:15:31;;;;;;;7.18;3.58;;;;;;;;;;5051805;28;20749;-68
2023/05/22 06:17:56;;;;;;;6.23;3.73;;;;;;;;;;5031693;28;20043;-68
2023/05/22 06:20:23;;;;;;;8.27;4.15;;;;;;;;;;5051654;28;20033;-67
2023/05/22 06:22:49;;;;;;;7.43;4.35;;;;;;;;;;5030449;28;20129;-67
2023/05/22 06:25:14;;;;;;;8.57;4.28;;;;;;;;;;5045610;28;20128;-62
2023/05/22 06:27:39;;;;;;;6.85;4.05;;;;;;;;;;5050956;28;20052;-63
2023/05/22 06:30:05;;;;;;;7.45;4.47;;;;;;;;;;5050612;28;20048;-63
2023/05/22 06:32:31;;;;;;;6.40;3.95;;;;;;;;;;5055052;28;20028;-68
2023/05/22 06:34:56;;;;;;;7.77;4.43;;;;;;;;;;5055465;28;20032;-71
2023/05/22 06:37:21;;;;;;;12.50;4.53;;;;;;;;;;5030275;28;20041;-66
2023/05/22 06:39:47;;;;;;;10.57;4.00;;;;;;;;;;5017121;28;20039;-60
2023/05/22 06:42:13;;;;;;;12.60;3.90;;;;;;;;;;5046036;28;20284;-67
2023/05/22 06:44:38;;;;;;;7.80;4.10;;;;;;;;;;5038532;28;20032;-66
2023/05/22 06:47:04;;;;;;;9.05;4.47;;;;;;;;;;5043097;28;20473;-62
2023/05/22 06:49:29;;;;;;;7.78;4.10;;;;;;;;;;5054948;28;20040;-62
2023/05/22 06:51:54;;;;;;;7.20;3.60;;;;;;;;;;5050635;28;20471;-64
2023/05/22 06:54:20;;;;;;;8.10;4.17;;;;;;;;;;5031550;28;20480;-65
2023/05/22 06:56:45;;;;;;;7.40;3.80;;;;;;;;;;5019395;28;20515;-66
2023/05/22 06:59:10;;;;;;;8.30;3.67;;;;;;;;;;5057130;28;20071;-66
2023/05/22 07:01:36;;;;;;;7.50;3.13;;;;;;;;;;5047894;28;20030;-66
2023/05/22 07:04:03;;;;;;;7.35;3.70;;;;;;;;;;5061738;28;20036;-64
2023/05/22 07:06:32;;;;;;;12.07;3.80;;;;;;;;;;5055387;28;20521;-67
2023/05/22 07:08:57;;;;;;;7.30;3.75;;;;;;;;;;5045116;28;20418;-65
2023/05/22 07:11:23;;;;;;;8.23;3.50;;;;;;;;;;5035520;28;20037;-67
2023/05/22 07:13:48;;;;;;;6.80;3.33;;;;;;;;;;5044124;28;20112;-66
2023/05/22 07:16:13;;;;;;;5.60;3.53;;;;;;;;;;5048390;28;20275;-64
2023/05/22 07:18:39;;;;;;;7.77;3.63;;;;;;;;;;5033765;28;20037;-65
2023/05/22 07:21:04;;;;;;;5.53;3.22;;;;;;;;;;5036831;28;20286;-63
2023/05/22 07:23:29;;;;;;;6.22;3.67;;;;;;;;;;5034630;28;20033;-64
2023/05/22 07:25:55;;;;;;;7.35;3.80;;;;;;;;;;5040180;28;20029;-62
2023/05/22 07:28:20;;;;;;;7.07;3.97;;;;;;;;;;5043059;28;20041;-65
2023/05/22 07:30:45;;;;;;;9.70;3.67;;;;;;;;;;5040923;28;20037;-66
2023/05/22 07:33:11;;;;;;;8.30;3.70;;;;;;;;;;5035776;28;20128;-68
2023/05/22 07:35:36;;;;;;;5.13;3.60;;;;;;;;;;5031004;28;20084;-65
2023/05/22 07:38:02;;;;;;;6.60;3.67;;;;;;;;;;5040151;28;20071;-67
2023/05/22 07:40:28;;;;;;;5.93;3.70;;;;;;;;;;5029891;28;20124;-68
2023/05/22 07:42:53;;;;;;;5.80;3.50;;;;;;;;;;5041332;28;20108;-64
2023/05/22 07:45:18;;;;;;;5.27;3.27;;;;;;;;;;5038032;28;20256;-67
2023/05/22 07:47:43;;;;;;;10.48;4.30;;;;;;;;;;5058679;28;20907;-69
2023/05/22 07:50:09;;;;;;;6.87;3.60;;;;;;;;;;5048265;28;20045;-64
2023/05/22 07:52:34;;;;;;;6.40;3.60;;;;;;;;;;5029778;28;20099;-70
2023/05/22 07:54:59;;;;;;;6.53;3.83;;;;;;;;;;5026928;28;20037;-63
2023/05/22 07:57:25;;;;;;;5.72;3.60;;;;;;;;;;5046640;28;20534;-68
2023/05/22 07:59:50;;;;;;;7.03;3.40;;;;;;;;;;5037206;28;20037;-73
2023/05/22 08:02:16;;;;;;;9.35;3.65;;;;;;;;;;5047122;28;20117;-74
2023/05/22 08:04:43;;;;;;;5.85;3.50;;;;;;;;;;5046422;28;20552;-68
2023/05/22 08:07:08;;;;;;;6.32;3.60;;;;;;;;;;5047393;28;20061;-68
2023/05/22 08:09:33;;;;;;;8.60;3.58;;;;;;;;;;5029973;28;20052;-70
2023/05/22 08:11:59;;;;;;;7.87;3.60;;;;;;;;;;5035347;28;20033;-72
2023/05/22 08:14:25;;;;;;;6.15;3.30;;;;;;;;;;5046791;28;20315;-66
2023/05/22 08:16:50;;;;;;;7.83;3.37;;;;;;;;;;5046154;28;20056;-64
2023/05/22 08:19:15;;;;;;;7.73;3.13;;;;;;;;;;5043617;28;20295;-70
2023/05/22 08:21:40;;;;;;;5.43;3.20;;;;;;;;;;5015606;28;20030;-68
2023/05/22 08:24:06;;;;;;;8.00;3.40;;;;;;;;;;5040553;28;20447;-72
2023/05/22 08:26:32;;;;;;;5.28;3.03;;;;;;;;;;5035893;28;20418;-70
2023/05/22 08:28:58;;;;;;;6.07;3.10;;;;;;;;;;5038570;28;20040;-70
2023/05/22 08:31:23;;;;;;;4.50;2.88;;;;;;;;;;5032757;28;20041;-74
2023/05/22 08:33:48;;;;;;;5.47;2.75;;;;;;;;;;5045836;28;20035;-67
2023/05/22 08:36:14;;;;;;;5.18;2.97;;;;;;;;;;5033083;28;20048;-70
2023/05/22 08:38:39;;;;;;;5.75;3.00;;;;;;;;;;5043419;28;20097;-65
2023/05/22 08:41:05;;;;;;;5.53;2.90;;;;;;;;;;5043656;28;20157;-66
2023/05/22 08:43:30;;;;;;;6.63;2.75;;;;;;;;;;5030276;28;20083;-64
2023/05/22 08:45:58;;;;;;;4.20;2.80;;;;;;;;;;5045574;28;20037;-68
2023/05/22 08:48:24;;;;;;;5.78;2.60;;;;;;;;;;5028112;28;20531;-69
2023/05/22 08:50:56;;;;;;;6.53;2.95;;;;;;;;;;5026752;28;20042;-61
2023/05/22 08:53:22;;;;;;;6.70;2.65;;;;;;;;;;5039382;28;20025;-67
2023/05/22 08:55:48;;;;;;;6.18;2.40;;;;;;;;;;5030786;28;20061;-70
2023/05/22 08:58:13;;;;;;;5.30;2.53;;;;;;;;;;5036200;28;20490;-70
2023/05/22 09:00:38;;;;;;;5.43;2.40;;;;;;;;;;5026977;28;20037;-69
2023/05/22 09:03:05;;;;;;;4.63;2.40;;;;;;;;;;5029525;28;20763;-69
2023/05/22 09:05:33;;;;;;;6.15;2.85;;;;;;;;;;5030284;28;20124;-63
2023/05/22 09:07:58;;;;;;;19.38;5.30;;;;;;;;;;5037416;28;20423;-69
2023/05/22 09:10:23;;;;;;;41.27;27.17;;;;;;;;;;5043397;28;20170;-69
2023/05/22 09:13:16;;;;;;;138.75;97.50;;;;;;;;;;5047626;28;20045;-67
2023/05/22 09:15:41;;;;;;;72.28;47.45;;;;;;;;;;5034072;28;20037;-66
2023/05/22 09:18:07;;;;;;;55.73;36.87;;;;;;;;;;5051388;28;20041;-66
2023/05/22 09:20:37;;;;;;;42.38;28.95;;;;;;;;;;5042777;28;20293;-72
2023/05/22 09:23:09;;;;;;;34.90;23.73;;;;;;;;;;5045768;28;20115;-69
2023/05/22 09:25:35;;;;;;;35.28;21.60;;;;;;;;;;5046871;28;20104;-69
2023/05/22 09:28:00;;;;;;;26.45;18.55;;;;;;;;;;5047537;28;20151;-70
2023/05/22 09:30:25;;;;;;;23.73;15.63;;;;;;;;;;5031164;28;20053;-70
2023/05/22 09:32:51;;;;;;;19.58;11.95;;;;;;;;;;5047154;28;20714;-70
2023/05/22 09:35:17;;;;;;;15.77;8.40;;;;;;;;;;5028984;28;20107;-65
2023/05/22 09:37:42;;;;;;;12.98;7.82;;;;;;;;;;5026333;28;20047;-69
2023/05/22 09:40:09;;;;;;;10.07;6.07;;;;;;;;;;5027702;28;20037;-69
2023/05/22 09:42:35;;;;;;;6.55;4.93;;;;;;;;;;5023657;28;20037;-69
2023/05/22 09:45:06;;;;;;;6.63;4.43;;;;;;;;;;5029024;28;20036;-68
2023/05/22 09:47:34;;;;;;;7.85;3.50;;;;;;;;;;5026661;28;20037;-65
2023/05/22 09:50:00;;;;;;;5.45;3.00;;;;;;;;;;5041487;28;20329;-64
2023/05/22 09:52:31;;;;;;;7.07;2.90;;;;;;;;;;5026455;28;20021;-67
2023/05/22 09:54:57;;;;;;;6.45;3.42;;;;;;;;;;5026650;28;20433;-64
2023/05/22 09:57:23;;;;;;;7.97;3.55;;;;;;;;;;5026022;28;20128;-69
2023/05/22 09:59:57;;;;;;;6.63;2.78;;;;;;;;;;5024655;28;20071;-69
2023/05/22 10:02:23;;;;;;;5.32;3.17;;;;;;;;;;5026818;28;20037;-71
2023/05/22 10:04:49;;;;;;;7.53;3.70;;;;;;;;;;5028319;28;20037;-70
2023/05/22 10:07:15;;;;;;;11.68;3.70;;;;;;;;;;5032271;28;20048;-64
2023/05/22 10:09:40;;;;;;;7.88;3.65;;;;;;;;;;5029124;28;20044;-65
2023/05/22 10:12:06;;;;;;;5.20;3.40;;;;;;;;;;5031918;28;20479;-70
2023/05/22 10:14:31;;;;;;;5.47;3.22;;;;;;;;;;5029110;28;20520;-68
2023/05/22 10:17:00;;;;;;;6.35;3.15;;;;;;;;;;5036930;28;20048;-69
2023/05/22 10:19:27;;;;;;;4.63;3.00;;;;;;;;;;5026516;28;20038;-68
2023/05/22 10:21:52;;;;;;;5.07;2.97;;;;;;;;;;5018138;28;20390;-64
2023/05/22 10:24:18;;;;;;;7.50;3.30;;;;;;;;;;5029999;28;20120;-70
2023/05/22 10:26:43;;;;;;;6.03;3.10;;;;;;;;;;5031083;28;20130;-72
2023/05/22 10:29:13;;;;;;;4.40;2.60;;;;;;;;;;5027127;28;20084;-65
2023/05/22 10:31:44;;;;;;;5.47;3.00;;;;;;;;;;5029515;28;20037;-64
2023/05/22 10:34:10;;;;;;;6.07;3.03;;;;;;;;;;5028313;28;20663;-67
2023/05/22 10:36:41;;;;;;;5.47;2.80;;;;;;;;;;5022310;28;20053;-65
2023/05/22 10:39:18;;;;;;;6.65;2.67;;;;;;;;;;5027954;28;20048;-68
2023/05/22 10:41:44;;;;;;;7.88;3.35;;;;;;;;;;5042341;28;20041;-68
2023/05/22 10:44:09;;;;;;;6.95;2.80;;;;;;;;;;5048166;28;20467;-63
2023/05/22 10:46:35;;;;;;;9.33;2.90;;;;;;;;;;5032312;28;20554;-67
2023/05/22 10:49:00;;;;;;;5.72;2.50;;;;;;;;;;5034843;28;20504;-71
2023/05/22 10:51:25;;;;;;;5.82;3.10;;;;;;;;;;5032942;28;20119;-66
2023/05/22 10:53:54;;;;;;;5.93;2.80;;;;;;;;;;5036015;28;20041;-67
2023/05/22 10:56:20;;;;;;;5.03;3.20;;;;;;;;;;5041566;28;20392;-64
2023/05/22 10:58:55;;;;;;;7.18;3.10;;;;;;;;;;5039512;28;20033;-66
2023/05/22 11:01:21;;;;;;;10.27;3.75;;;;;;;;;;5036279;28;20036;-63
2023/05/22 11:03:55;;;;;;;8.80;4.03;;;;;;;;;;5040187;28;20096;-67
2023/05/22 11:06:44;;;;;;;7.45;3.90;;;;;;;;;;5040205;28;20029;-63
2023/05/22 11:09:28;;;;;;;7.50;3.80;;;;;;;;;;5040076;28;20057;-64
2023/05/22 11:12:11;;;;;;;5.65;3.92;;;;;;;;;;5044051;28;20115;-64
2023/05/22 11:14:36;;;;;;;7.70;3.72;;;;;;;;;;5047591;28;20477;-62
2023/05/22 11:17:01;;;;;;;5.23;3.40;;;;;;;;;;5031096;28;20116;-71
2023/05/22 11:19:27;;;;;;;8.67;4.23;;;;;;;;;;5038564;28;20052;-70
2023/05/22 11:21:52;;;;;;;5.10;3.50;;;;;;;;;;5031981;28;20579;-65
2023/05/22 11:24:17;;;;;;;5.40;2.90;;;;;;;;;;5031638;28;20400;-66
2023/05/22 11:26:43;;;;;;;5.80;2.95;;;;;;;;;;5033077;28;20398;-62
2023/05/22 11:29:08;;;;;;;7.38;3.45;;;;;;;;;;5037146;28;20029;-68
2023/05/22 11:31:36;;;;;;;6.83;3.37;;;;;;;;;;5044576;28;20025;-73
2023/05/22 11:34:01;;;;;;;6.00;3.38;;;;;;;;;;5037197;28;20265;-65
2023/05/22 11:36:28;;;;;;;6.25;3.00;;;;;;;;;;5040681;28;20530;-66
2023/05/22 11:38:59;;;;;;;7.35;2.83;;;;;;;;;;5033772;28;20013;-69
2023/05/22 11:41:34;;;;;;;4.72;2.30;;;;;;;;;;5033562;28;20063;-61
2023/05/22 11:44:00;;;;;;;5.18;3.10;;;;;;;;;;5036635;28;20068;-65
2023/05/22 11:46:25;;;;;;;6.28;2.70;;;;;;;;;;5044796;28;20078;-68
2023/05/22 11:48:50;;;;;;;4.95;2.33;;;;;;;;;;5034424;28;20045;-67
2023/05/22 11:51:18;;;;;;;5.43;2.70;;;;;;;;;;5033166;28;20145;-69
2023/05/22 11:53:43;;;;;;;4.47;2.72;;;;;;;;;;5046493;28;20271;-66
2023/05/22 11:56:08;;;;;;;5.40;2.90;;;;;;;;;;5045899;28;20052;-68
2023/05/22 11:58:33;;;;;;;3.37;2.33;;;;;;;;;;5034396;28;20034;-68
2023/05/22 12:01:02;;;;;;;4.87;2.30;;;;;;;;;;5046934;28;20303;-63
2023/05/22 12:03:30;;;;;;;3.13;2.10;;;;;;;;;;5045972;28;20279;-70
2023/05/22 12:05:56;;;;;;;5.78;2.25;;;;;;;;;;5027579;28;20581;-68
2023/05/22 12:08:21;;;;;;;5.07;2.15;;;;;;;;;;5040775;28;20036;-69
2023/05/22 12:10:49;;;;;;;3.25;2.10;;;;;;;;;;5034270;28;20091;-70
2023/05/22 12:13:21;;;;;;;4.75;2.63;;;;;;;;;;5047248;28;20029;-69
2023/05/22 12:15:46;;;;;;;4.55;2.13;;;;;;;;;;5046983;28;20107;-67
2023/05/22 12:18:11;;;;;;;4.47;2.47;;;;;;;;;;5033451;28;20053;-77
2023/05/22 12:20:40;;;;;;;5.17;2.20;;;;;;;;;;5036324;28;20037;-75
2023/05/22 12:23:09;;;;;;;3.78;2.10;;;;;;;;;;5028854;28;20280;-64
2023/05/22 12:25:36;;;;;;;4.85;2.30;;;;;;;;;;5019709;28;20049;-59
2023/05/22 12:28:01;;;;;;;3.90;2.20;;;;;;;;;;5036796;28;20040;-64
2023/05/22 12:30:26;;;;;;;4.00;2.17;;;;;;;;;;5039168;28;20041;-69
2023/05/22 12:32:51;;;;;;;5.28;2.58;;;;;;;;;;5028562;28;20036;-69
2023/05/22 12:35:17;;;;;;;4.90;2.53;;;;;;;;;;5034609;28;20087;-67
2023/05/22 12:37:49;;;;;;;4.05;2.38;;;;;;;;;;5040564;28;20072;-68
2023/05/22 12:40:14;;;;;;;5.75;2.17;;;;;;;;;;5046003;28;20533;-67
2023/05/22 12:42:40;;;;;;;3.13;2.38;;;;;;;;;;5046316;28;20044;-63
2023/05/22 12:45:05;;;;;;;3.10;2.10;;;;;;;;;;5044680;28;20036;-64
2023/05/22 12:47:31;;;;;;;3.88;2.28;;;;;;;;;;5046298;28;20060;-65
2023/05/22 12:49:56;;;;;;;4.85;2.38;;;;;;;;;;5038113;28;20029;-68
2023/05/22 12:52:21;;;;;;;3.63;2.00;;;;;;;;;;5038652;28;20576;-69
2023/05/22 12:54:46;;;;;;;5.95;2.88;;;;;;;;;;5035857;28;20491;-63
2023/05/22 12:57:12;;;;;;;3.37;2.27;;;;;;;;;;5031260;28;20041;-65
2023/05/22 12:59:37;;;;;;;4.10;2.70;;;;;;;;;;5025710;28;20795;-65
2023/05/22 13:02:03;;;;;;;4.30;2.40;;;;;;;;;;5040447;28;20434;-66
2023/05/22 13:04:28;;;;;;;7.00;2.80;;;;;;;;;;5025337;28;20311;-67
2023/05/22 13:06:53;;;;;;;3.97;2.58;;;;;;;;;;5031030;28;20039;-66
2023/05/22 13:09:19;;;;;;;4.47;2.70;;;;;;;;;;5026288;28;20208;-64
2023/05/22 13:11:45;;;;;;;4.50;2.83;;;;;;;;;;5038850;28;20804;-60
2023/05/22 13:14:10;;;;;;;4.32;2.97;;;;;;;;;;5026551;28;20047;-67
2023/05/22 13:16:35;;;;;;;5.17;3.40;;;;;;;;;;5038865;28;20040;-67
2023/05/22 13:19:00;;;;;;;4.47;3.00;;;;;;;;;;5026101;28;20053;-64
2023/05/22 13:21:26;;;;;;;5.17;3.07;;;;;;;;;;5038797;28;20068;-65
2023/05/22 13:23:51;;;;;;;5.07;3.10;;;;;;;;;;5034545;28;20287;-67
2023/05/22 13:26:16;;;;;;;5.13;3.40;;;;;;;;;;5043206;28;20358;-72
2023/05/22 13:28:41;;;;;;;5.33;3.17;;;;;;;;;;5034663;28;20052;-70
2023/05/22 13:31:07;;;;;;;5.20;3.20;;;;;;;;;;5044101;28;20041;-68
2023/05/22 13:33:32;;;;;;;7.07;2.90;;;;;;;;;;5041611;28;20275;-69
2023/05/22 13:35:57;;;;;;;5.23;3.13;;;;;;;;;;5044415;28;20033;-69
2023/05/22 13:38:22;;;;;;;6.67;3.00;;;;;;;;;;5038473;28;20691;-69
2023/05/22 13:40:48;;;;;;;6.00;3.13;;;;;;;;;;5037617;28;20284;-63
2023/05/22 13:43:13;;;;;;;6.00;2.90;;;;;;;;;;5032283;28;20286;-67
2023/05/22 13:45:38;;;;;;;4.23;3.00;;;;;;;;;;5044872;28;20043;-68
2023/05/22 13:48:03;;;;;;;4.72;2.80;;;;;;;;;;5025201;28;20705;-69
2023/05/22 13:50:29;;;;;;;5.10;2.67;;;;;;;;;;5042934;28;20174;-67
2023/05/22 13:52:54;;;;;;;3.88;2.65;;;;;;;;;;5038714;28;20864;-67
2023/05/22 13:55:19;;;;;;;4.75;3.15;;;;;;;;;;5045044;28;20432;-66
2023/05/22 13:57:45;;;;;;;4.45;2.90;;;;;;;;;;5039755;28;20041;-63
2023/05/22 14:00:10;;;;;;;5.05;2.85;;;;;;;;;;5029837;28;20025;-65
2023/05/22 14:02:37;;;;;;;3.97;2.38;;;;;;;;;;5036901;28;20030;-62
2023/05/22 14:05:02;;;;;;;4.97;2.83;;;;;;;;;;5024844;28;20033;-66
2023/05/22 14:07:27;;;;;;;3.67;2.80;;;;;;;;;;5032781;28;20448;-66
2023/05/22 14:09:52;;;;;;;4.22;2.50;;;;;;;;;;5041824;28;20044;-58
2023/05/22 14:12:18;;;;;;;5.97;2.73;;;;;;;;;;5043480;28;20045;-67
2023/05/22 14:14:43;;;;;;;5.27;2.60;;;;;;;;;;5032577;28;20642;-64
2023/05/22 14:17:08;;;;;;;5.20;2.63;;;;;;;;;;5032941;28;20279;-64
2023/05/22 14:19:33;;;;;;;4.23;2.40;;;;;;;;;;5040718;28;20069;-69
2023/05/22 14:21:59;;;;;;;2.90;2.25;;;;;;;;;;5039682;28;20752;-66
2023/05/22 14:24:24;;;;;;;4.50;2.67;;;;;;;;;;5038623;28;20120;-61
2023/05/22 14:26:50;;;;;;;4.32;2.40;;;;;;;;;;5037760;28;20310;-67
2023/05/22 14:29:15;;;;;;;4.50;2.72;;;;;;;;;;5040473;28;20053;-70
2023/05/22 14:31:47;;;;;;;4.30;2.38;;;;;;;;;;5053305;28;20057;-64
2023/05/22 14:34:13;;;;;;;5.07;2.78;;;;;;;;;;5042368;28;20144;-66
2023/05/22 14:36:38;;;;;;;4.82;2.63;;;;;;;;;;5044938;28;20037;-72